createdAt,value
2023-03-10T00:01:24.157Z,10.80
2023-03-10T00:03:54.008Z,10.70
2023-03-10T00:06:25.633Z,10.80
2023-03-10T00:08:54.801Z,10.80
2023-03-10T00:11:23.524Z,10.70
2023-03-10T00:13:52.014Z,10.70
2023-03-10T00:16:24.008Z,10.70
2023-03-10T00:18:52.678Z,10.60
2023-03-10T00:21:23.143Z,10.70
2023-03-10T00:23:51.717Z,10.70
2023-03-10T00:26:21.811Z,10.70
2023-03-10T00:28:50.766Z,10.70
2023-03-10T00:31:22.469Z,10.80
2023-03-10T00:33:52.196Z,10.70
2023-03-10T00:36:23.099Z,10.70
2023-03-10T00:38:52.479Z,10.60
2023-03-10T00:41:22.663Z,10.50
2023-03-10T00:43:51.858Z,10.50
2023-03-10T00:46:21.841Z,10.50
2023-03-10T00:48:50.224Z,10.60
2023-03-10T00:51:19.598Z,10.60
2023-03-10T00:53:48.613Z,10.60
2023-03-10T00:56:21.931Z,10.60
2023-03-10T00:58:53.318Z,10.60
2023-03-10T01:01:26.158Z,10.70
2023-03-10T01:03:56.540Z,10.60
2023-03-10T01:06:25.272Z,10.60
2023-03-10T01:08:53.783Z,10.50
2023-03-10T01:11:24.554Z,10.50
2023-03-10T01:13:54.060Z,10.50
2023-03-10T01:16:23.891Z,10.50
2023-03-10T01:18:52.438Z,10.50
2023-03-10T01:21:23.480Z,10.50
2023-03-10T01:23:51.801Z,10.60
2023-03-10T01:26:20.368Z,10.60
2023-03-10T01:28:49.290Z,10.60
2023-03-10T01:31:18.976Z,10.70
2023-03-10T01:33:49.300Z,10.70
2023-03-10T01:36:19.757Z,10.70
2023-03-10T01:38:48.790Z,10.70
2023-03-10T01:41:17.918Z,10.70
2023-03-10T01:43:48.791Z,10.60
2023-03-10T01:46:42.887Z,10.60
2023-03-10T01:49:19.093Z,10.60
2023-03-10T01:51:52.058Z,10.60
2023-03-10T01:54:25.245Z,10.70
2023-03-10T01:56:55.480Z,10.70
2023-03-10T01:59:28.680Z,10.70
2023-03-10T02:01:58.847Z,10.70
2023-03-10T02:04:36.125Z,10.80
2023-03-10T02:07:07.239Z,10.80
2023-03-10T02:09:39.391Z,10.80
2023-03-10T02:12:10.372Z,10.80
2023-03-10T02:14:39.414Z,10.80
2023-03-10T02:17:10.243Z,10.80
2023-03-10T02:19:56.203Z,10.80
2023-03-10T02:22:24.578Z,10.80
2023-03-10T02:24:55.394Z,10.70
2023-03-10T02:27:27.267Z,10.80
2023-03-10T02:30:00.830Z,10.80
2023-03-10T02:32:32.340Z,10.80
2023-03-10T02:35:00.984Z,10.80
2023-03-10T02:37:31.609Z,10.80
2023-03-10T02:40:00.696Z,10.80
2023-03-10T02:42:34.320Z,10.70
2023-03-10T02:45:04.037Z,10.60
2023-03-10T02:47:32.409Z,10.50
2023-03-10T02:50:00.810Z,10.40
2023-03-10T02:52:35.836Z,10.30
2023-03-10T02:55:04.262Z,10.30
2023-03-10T02:57:33.930Z,10.20
2023-03-10T03:00:02.472Z,10.20
2023-03-10T03:02:33.008Z,10.10
2023-03-10T03:05:01.399Z,10.00
2023-03-10T03:07:30.085Z,10.00
2023-03-10T03:09:58.554Z,9.90
2023-03-10T03:12:26.973Z,9.90
2023-03-10T03:14:56.704Z,9.90
2023-03-10T03:17:25.089Z,9.90
2023-03-10T03:19:54.048Z,9.80
2023-03-10T03:22:22.376Z,9.90
2023-03-10T03:24:50.771Z,9.90
2023-03-10T03:27:19.187Z,9.90
2023-03-10T03:29:47.587Z,9.80
2023-03-10T03:32:17.424Z,9.80
2023-03-10T03:34:45.781Z,9.80
2023-03-10T03:37:14.151Z,9.80
2023-03-10T03:39:42.731Z,9.80
2023-03-10T03:42:11.302Z,9.80
2023-03-10T03:44:39.790Z,9.80
2023-03-10T03:47:09.160Z,9.80
2023-03-10T03:49:39.409Z,9.80
2023-03-10T03:52:08.752Z,9.80
2023-03-10T03:54:37.398Z,9.80
2023-03-10T03:57:05.884Z,9.80
2023-03-10T03:59:34.277Z,9.90
2023-03-10T04:02:03.560Z,9.90
2023-03-10T04:04:31.940Z,9.90
2023-03-10T04:07:03.041Z,9.90
2023-03-10T04:09:31.367Z,10.00
2023-03-10T04:11:59.869Z,10.00
2023-03-10T04:14:29.014Z,10.00
2023-03-10T04:16:57.356Z,10.00
2023-03-10T04:19:25.840Z,9.90
2023-03-10T04:21:54.149Z,9.90
2023-03-10T04:24:24.240Z,9.90
2023-03-10T04:26:52.586Z,10.00
2023-03-10T04:29:24.437Z,10.00
2023-03-10T04:32:04.858Z,10.00
2023-03-10T04:34:34.162Z,10.00
2023-03-10T04:37:03.432Z,10.10
2023-03-10T04:39:33.160Z,10.10
2023-03-10T04:42:01.556Z,10.10
2023-03-10T04:44:31.228Z,10.10
2023-03-10T04:46:59.954Z,10.10
2023-03-10T04:49:28.960Z,10.10
2023-03-10T04:51:57.429Z,10.00
2023-03-10T04:54:25.750Z,10.00
2023-03-10T04:56:55.509Z,9.80
2023-03-10T04:59:24.493Z,9.80
2023-03-10T05:01:54.093Z,9.80
2023-03-10T05:04:22.492Z,9.80
2023-03-10T05:06:51.846Z,9.60
2023-03-10T05:09:20.248Z,9.70
2023-03-10T05:11:48.721Z,9.60
2023-03-10T05:14:19.101Z,9.60
2023-03-10T05:16:49.394Z,9.60
2023-03-10T05:19:17.862Z,9.60
2023-03-10T05:21:46.244Z,9.60
2023-03-10T05:24:14.742Z,9.60
2023-03-10T05:26:43.124Z,9.60
2023-03-10T05:29:11.865Z,9.70
2023-03-10T05:31:41.664Z,9.70
2023-03-10T05:34:10.525Z,9.80
2023-03-10T05:36:38.937Z,9.70
2023-03-10T05:39:09.543Z,9.70
2023-03-10T05:41:38.464Z,9.80
2023-03-10T05:44:07.199Z,9.80
2023-03-10T05:46:35.616Z,9.90
2023-03-10T05:49:06.274Z,9.80
2023-03-10T05:51:34.638Z,9.90
2023-03-10T05:54:03.912Z,9.90
2023-03-10T05:56:32.296Z,9.90
2023-03-10T05:59:00.667Z,9.90
2023-03-10T06:01:29.380Z,9.90
2023-03-10T06:03:57.988Z,9.90
2023-03-10T06:06:27.826Z,9.90
2023-03-10T06:08:56.822Z,9.90
2023-03-10T06:11:25.432Z,9.90
2023-03-10T06:13:56.819Z,9.90
2023-03-10T06:16:25.393Z,9.90
2023-03-10T06:18:55.692Z,9.90
2023-03-10T06:21:25.348Z,9.90
2023-03-10T06:23:55.093Z,9.90
2023-03-10T06:26:24.615Z,9.90
2023-03-10T06:28:53.164Z,10.00
2023-03-10T06:31:24.434Z,10.00
2023-03-10T06:33:53.636Z,10.00
2023-03-10T06:36:22.908Z,10.10
2023-03-10T06:38:51.822Z,10.20
2023-03-10T06:41:22.915Z,10.20
2023-03-10T06:43:51.328Z,10.20
2023-03-10T06:46:19.804Z,10.20
2023-03-10T06:48:48.204Z,10.20
2023-03-10T06:51:18.648Z,10.20
2023-03-10T06:53:47.369Z,10.20
2023-03-10T06:56:17.960Z,10.10
2023-03-10T06:58:48.595Z,10.10
2023-03-10T07:01:26.630Z,10.10
2023-03-10T07:03:55.617Z,10.00
2023-03-10T07:06:24.822Z,10.00
2023-03-10T07:08:54.459Z,10.00
2023-03-10T07:11:23.635Z,10.00
2023-03-10T07:13:53.989Z,10.00
2023-03-10T07:16:22.606Z,9.90
2023-03-10T07:18:51.422Z,9.90
2023-03-10T07:21:21.810Z,9.90
2023-03-10T07:23:50.370Z,9.90
2023-03-10T07:26:19.803Z,9.90
2023-03-10T07:28:48.671Z,9.90
2023-03-10T07:31:19.006Z,9.90
2023-03-10T07:33:47.909Z,9.90
2023-03-10T07:36:18.274Z,9.90
2023-03-10T07:41:18.868Z,9.90
2023-03-10T07:43:47.334Z,10.00
2023-03-10T07:46:18.067Z,10.00
2023-03-10T07:48:46.633Z,10.00
2023-03-10T07:51:15.998Z,10.00
2023-03-10T07:53:44.390Z,10.00
2023-03-10T07:56:14.644Z,10.00
2023-03-10T07:58:43.810Z,10.00
2023-03-10T08:03:47.653Z,10.00
2023-03-10T08:06:20.789Z,10.00
2023-03-10T08:08:49.888Z,10.00
2023-03-10T08:11:18.342Z,10.00
2023-03-10T08:13:47.677Z,10.10
2023-03-10T08:16:16.475Z,10.10
2023-03-10T08:21:15.298Z,10.10
2023-03-10T08:56:08.492Z,10.10
2023-03-10T08:58:36.862Z,10.60
2023-03-10T09:21:03.065Z,10.60
2023-03-10T09:26:01.311Z,10.80
2023-03-10T09:50:11.926Z,10.90
2023-03-10T10:05:26.484Z,10.90
2023-03-10T10:28:41.876Z,11.20
2023-03-10T10:31:16.735Z,11.40
2023-03-10T10:33:59.602Z,11.50
2023-03-10T10:36:33.534Z,11.40
2023-03-10T10:40:27.945Z,11.40
2023-03-10T10:42:58.512Z,11.60
2023-03-10T10:45:30.253Z,11.70
2023-03-10T10:47:58.780Z,11.60
2023-03-10T10:50:28.559Z,11.50
2023-03-10T10:53:21.970Z,11.40
2023-03-10T10:56:04.089Z,11.40
2023-03-10T10:58:35.083Z,11.30
2023-03-10T11:01:05.841Z,11.30
2023-03-10T11:03:36.987Z,11.30
2023-03-10T11:06:15.624Z,11.30
2023-03-10T11:08:50.968Z,11.30
2023-03-10T11:11:33.646Z,11.30
2023-03-10T11:14:31.359Z,11.40
2023-03-10T11:17:05.522Z,11.50
2023-03-10T11:19:39.388Z,11.50
2023-03-10T11:22:19.063Z,11.50
2023-03-10T11:24:52.361Z,11.40
2023-03-10T11:27:29.685Z,11.40
2023-03-10T11:30:06.916Z,11.80
2023-03-10T11:32:46.000Z,12.10
2023-03-10T11:35:24.637Z,12.30
2023-03-10T11:38:01.940Z,12.10
2023-03-10T11:40:36.816Z,11.90
2023-03-10T11:43:13.049Z,11.70
2023-03-10T11:45:52.603Z,11.50
2023-03-10T11:48:35.077Z,11.20
2023-03-10T11:51:06.146Z,11.20
2023-03-10T11:53:41.108Z,11.20
2023-03-10T11:56:12.709Z,11.10
2023-03-10T11:58:50.873Z,11.00
2023-03-10T12:01:24.373Z,10.70
2023-03-10T12:04:00.580Z,10.50
2023-03-10T12:06:36.064Z,10.40
2023-03-10T12:09:07.231Z,10.40
2023-03-10T12:11:37.761Z,10.40
2023-03-10T12:14:07.648Z,10.30
2023-03-10T12:16:39.547Z,10.10
2023-03-10T12:19:08.178Z,10.00
2023-03-10T12:21:36.572Z,10.00
2023-03-10T12:24:05.937Z,10.10
2023-03-10T12:30:44.145Z,10.20
2023-03-10T12:33:43.901Z,10.30
2023-03-10T12:36:16.131Z,10.30
2023-03-10T12:38:47.328Z,10.30
2023-03-10T12:41:31.545Z,10.20
2023-03-10T12:44:01.318Z,10.10
2023-03-10T12:46:48.818Z,9.80
2023-03-10T12:49:36.035Z,9.60
2023-03-10T12:52:22.460Z,9.10
2023-03-10T12:55:03.001Z,8.50
2023-03-10T12:57:37.594Z,7.90
2023-03-10T13:02:47.660Z,7.30
2023-03-10T13:05:24.069Z,6.50
2023-03-10T13:07:57.124Z,6.20
2023-03-10T13:10:28.456Z,6.00
2023-03-10T13:15:31.992Z,5.70
2023-03-10T13:18:19.847Z,5.30
2023-03-10T13:20:50.955Z,5.20
2023-03-10T13:25:01.865Z,4.90
2023-03-10T13:27:32.919Z,4.80
2023-03-10T13:30:04.815Z,4.60
2023-03-10T13:33:28.393Z,4.50
2023-03-10T13:35:56.782Z,4.60
2023-03-10T13:38:25.512Z,4.50
2023-03-10T13:41:02.584Z,4.50
2023-03-10T13:43:37.538Z,4.50
2023-03-10T13:46:10.120Z,4.50
2023-03-10T13:48:41.305Z,4.60
2023-03-10T13:51:18.932Z,4.60
2023-03-10T13:53:48.526Z,4.60
2023-03-10T13:56:21.049Z,4.50
2023-03-10T13:58:51.430Z,4.50
2023-03-10T14:01:24.218Z,4.40
2023-03-10T14:04:00.182Z,4.30
2023-03-10T14:06:30.669Z,4.30
2023-03-10T14:09:12.743Z,4.20
2023-03-10T14:11:42.476Z,4.30
2023-03-10T14:14:12.700Z,4.20
2023-03-10T14:16:49.944Z,4.00
2023-03-10T14:19:55.060Z,3.90
2023-03-10T14:22:37.947Z,3.90
2023-03-10T14:25:17.356Z,3.80
2023-03-10T14:27:48.019Z,3.70
2023-03-10T14:30:24.122Z,3.70
2023-03-10T14:32:53.779Z,3.70
2023-03-10T14:35:29.846Z,3.70
2023-03-10T14:37:59.623Z,3.80
2023-03-10T14:40:28.086Z,3.80
2023-03-10T14:43:00.656Z,3.80
2023-03-10T14:45:32.504Z,3.70
2023-03-10T14:48:04.664Z,3.70
2023-03-10T14:50:33.202Z,3.80
2023-03-10T14:53:04.224Z,3.90
2023-03-10T14:55:32.589Z,3.70
2023-03-10T14:58:05.401Z,3.60
2023-03-10T15:00:34.930Z,3.60
2023-03-10T15:03:06.288Z,3.40
2023-03-10T15:05:47.803Z,3.50
2023-03-10T15:08:19.659Z,3.70
2023-03-10T15:10:51.057Z,3.80
2023-03-10T15:13:21.965Z,3.80
2023-03-10T15:15:50.938Z,3.80
2023-03-10T15:18:21.083Z,3.80
2023-03-10T15:20:50.185Z,3.80
2023-03-10T15:23:20.438Z,3.90
2023-03-10T15:25:48.805Z,3.90
2023-03-10T15:28:17.679Z,3.80
2023-03-10T15:30:46.127Z,3.80
2023-03-10T15:38:15.717Z,3.80
2023-03-10T15:40:45.680Z,4.20
2023-03-10T15:43:14.055Z,4.20
2023-03-10T15:48:12.472Z,4.20
2023-03-10T15:50:43.330Z,4.30
2023-03-10T15:53:11.794Z,4.30
2023-03-10T15:55:42.058Z,4.20
2023-03-10T16:05:49.052Z,4.20
2023-03-10T16:08:19.370Z,4.20
2023-03-10T16:23:32.641Z,4.30
2023-03-10T16:28:40.284Z,4.30
2023-03-10T16:41:07.813Z,4.10
2023-03-10T17:01:16.287Z,3.90
2023-03-10T17:03:45.216Z,3.60
2023-03-10T17:06:15.698Z,3.70
2023-03-10T17:08:44.216Z,3.70
2023-03-10T17:11:19.867Z,3.70
2023-03-10T17:13:49.711Z,3.80
2023-03-10T17:18:49.183Z,3.70
2023-03-10T17:21:19.740Z,3.30
2023-03-10T17:23:48.955Z,3.20
2023-03-10T17:26:22.580Z,3.10
2023-03-10T17:28:53.269Z,3.00
2023-03-10T17:31:27.079Z,3.00
2023-03-10T17:38:57.885Z,3.10
2023-03-10T17:41:27.071Z,3.00
2023-03-10T17:43:56.481Z,3.00
2023-03-10T17:46:27.879Z,3.10
2023-03-10T17:48:56.783Z,3.10
2023-03-10T17:51:27.280Z,3.10
2023-03-10T17:53:57.466Z,3.10
2023-03-10T17:56:26.218Z,3.10
2023-03-10T17:58:55.591Z,3.10
2023-03-10T18:01:28.052Z,3.10
2023-03-10T18:03:57.536Z,3.10
2023-03-10T18:06:28.495Z,3.10
2023-03-10T18:08:58.366Z,3.20
2023-03-10T18:11:27.946Z,3.40
2023-03-10T18:13:58.102Z,3.50
2023-03-10T18:16:29.920Z,3.60
2023-03-10T18:19:00.333Z,3.70
2023-03-10T18:21:29.958Z,3.50
2023-03-10T18:23:58.607Z,3.30
2023-03-10T18:26:30.433Z,3.10
2023-03-10T18:28:59.304Z,3.00
2023-03-10T18:31:32.717Z,2.90
2023-03-10T18:34:01.651Z,2.90
2023-03-10T18:36:31.117Z,2.90
2023-03-10T18:39:00.098Z,2.90
2023-03-10T18:41:30.961Z,2.90
2023-03-10T18:43:59.992Z,3.00
2023-03-10T18:46:30.846Z,3.00
2023-03-10T18:48:59.337Z,3.00
2023-03-10T18:51:29.426Z,3.00
2023-03-10T18:53:58.198Z,3.00
2023-03-10T18:56:29.126Z,2.80
2023-03-10T18:58:57.634Z,2.70
2023-03-10T19:01:26.914Z,2.80
2023-03-10T19:03:56.833Z,2.70
2023-03-10T19:06:29.987Z,2.70
2023-03-10T19:08:58.416Z,2.70
2023-03-10T19:11:27.947Z,2.70
2023-03-10T19:13:56.463Z,2.70
2023-03-10T19:16:24.864Z,2.50
2023-03-10T19:18:53.779Z,2.40
2023-03-10T19:21:24.253Z,2.40
2023-03-10T19:23:52.850Z,2.30
2023-03-10T19:26:21.348Z,2.10
2023-03-10T19:28:50.413Z,2.10
2023-03-10T19:31:18.939Z,2.20
2023-03-10T19:33:47.354Z,2.30
2023-03-10T19:36:17.022Z,2.40
2023-03-10T19:38:46.838Z,2.50
2023-03-10T19:41:16.733Z,2.70
2023-03-10T19:43:45.836Z,2.80
2023-03-10T19:46:15.661Z,3.00
2023-03-10T19:48:45.566Z,3.10
2023-03-10T19:51:21.970Z,3.20
2023-03-10T19:53:53.876Z,3.20
2023-03-10T19:56:23.372Z,3.30
2023-03-10T19:58:52.378Z,3.30
2023-03-10T20:01:24.359Z,3.30
2023-03-10T20:03:53.351Z,3.30
2023-03-10T20:06:22.090Z,3.20
2023-03-10T20:08:52.104Z,3.20
2023-03-10T20:11:20.675Z,3.20
2023-03-10T20:13:49.467Z,3.20
2023-03-10T20:16:18.548Z,3.20
2023-03-10T20:18:47.309Z,3.10
2023-03-10T20:21:16.638Z,3.10
2023-03-10T20:23:47.690Z,3.00
2023-03-10T20:26:17.529Z,3.00
2023-03-10T20:28:46.610Z,3.00
2023-03-10T20:31:17.879Z,3.00
2023-03-10T20:33:46.573Z,2.90
2023-03-10T20:36:16.090Z,3.00
2023-03-10T20:38:46.296Z,3.20
2023-03-10T20:41:17.861Z,3.30
2023-03-10T20:43:46.751Z,3.40
2023-03-10T20:46:17.698Z,3.30
2023-03-10T20:48:46.305Z,3.20
2023-03-10T20:51:15.106Z,3.20
2023-03-10T20:53:43.774Z,3.20
2023-03-10T20:56:14.358Z,3.10
2023-03-10T20:58:44.192Z,2.90
2023-03-10T21:01:17.397Z,2.70
2023-03-10T21:03:45.854Z,2.50
2023-03-10T21:06:14.304Z,2.30
2023-03-10T21:08:42.764Z,2.10
2023-03-10T21:11:11.086Z,1.90
2023-03-10T21:13:40.862Z,1.80
2023-03-10T21:16:11.203Z,1.70
2023-03-10T21:18:40.276Z,1.50
2023-03-10T21:21:09.953Z,1.40
2023-03-10T21:23:39.671Z,1.40
2023-03-10T21:26:12.548Z,1.30
2023-03-10T21:28:41.182Z,1.20
2023-03-10T21:31:11.212Z,1.20
2023-03-10T21:33:41.736Z,1.20
2023-03-10T21:36:12.668Z,1.20
2023-03-10T21:38:41.131Z,1.10
2023-03-10T21:41:09.723Z,1.10
2023-03-10T21:43:38.115Z,1.20
2023-03-10T21:46:06.890Z,1.30
2023-03-10T21:48:36.677Z,1.40
2023-03-10T21:51:09.699Z,1.40
2023-03-10T21:53:38.272Z,1.30
2023-03-10T21:56:08.307Z,1.40
2023-03-10T21:58:36.817Z,1.50
2023-03-10T22:01:06.212Z,1.60
2023-03-10T22:03:36.550Z,1.70
2023-03-10T22:06:05.210Z,1.80
2023-03-10T22:08:33.970Z,1.70
2023-03-10T22:11:03.564Z,1.50
2023-03-10T22:13:31.911Z,1.20
2023-03-10T22:16:01.732Z,1.10
2023-03-10T22:18:30.470Z,0.90
2023-03-10T22:21:00.238Z,0.70
2023-03-10T22:23:29.536Z,0.70
2023-03-10T22:25:57.872Z,0.80
2023-03-10T22:28:26.333Z,0.80
2023-03-10T22:30:54.816Z,0.90
2023-03-10T22:33:23.182Z,0.70
2023-03-10T22:35:52.503Z,0.50
2023-03-10T22:38:22.416Z,0.60
2023-03-10T22:40:50.800Z,0.50
2023-03-10T22:43:19.122Z,0.50
2023-03-10T22:45:47.634Z,0.50
2023-03-10T22:48:16.141Z,0.50
2023-03-10T22:50:46.766Z,0.40
2023-03-10T22:53:16.722Z,0.30
2023-03-10T22:55:48.387Z,0.30
2023-03-10T22:58:17.381Z,0.20
2023-03-10T23:00:46.411Z,0.30
2023-03-10T23:03:15.419Z,0.30
2023-03-10T23:05:45.151Z,0.10
2023-03-10T23:08:14.074Z,0.10
2023-03-10T23:10:43.293Z,-0.10
2023-03-10T23:13:15.841Z,-0.30
2023-03-10T23:15:45.126Z,-0.50
2023-03-10T23:18:13.634Z,-0.50
2023-03-10T23:20:44.686Z,-0.60
2023-03-10T23:23:15.149Z,-0.80
2023-03-10T23:25:47.224Z,-0.90
2023-03-10T23:28:17.686Z,-1.00
2023-03-10T23:30:48.573Z,-1.10
2023-03-10T23:33:20.316Z,-1.00
2023-03-10T23:35:50.528Z,-0.90
2023-03-10T23:38:19.030Z,-1.00
2023-03-10T23:40:47.601Z,-1.10
2023-03-10T23:43:17.693Z,-1.10
2023-03-10T23:45:46.504Z,-1.00
2023-03-10T23:48:18.148Z,-1.10
2023-03-10T23:50:48.931Z,-1.20
2023-03-10T23:53:20.776Z,-1.40
2023-03-10T23:55:49.572Z,-1.40
2023-03-10T23:58:21.326Z,-1.30
